createdAt,value
2024-02-29T00:00:35.000Z,-40.0
2024-02-29T00:01:39.000Z,-40.0
2024-02-29T00:02:43.000Z,-40.0
2024-02-29T00:03:47.000Z,-40.0
2024-02-29T00:04:51.000Z,-40.0
2024-02-29T00:05:55.000Z,-40.0
2024-02-29T00:06:59.000Z,-40.0
2024-02-29T00:08:03.000Z,-40.0
2024-02-29T00:09:07.000Z,-40.0
2024-02-29T00:10:11.000Z,-40.0
2024-02-29T00:11:15.000Z,-40.0
2024-02-29T00:12:19.000Z,-40.0
2024-02-29T00:13:23.000Z,-40.0
2024-02-29T00:14:27.000Z,-40.0
2024-02-29T00:15:31.000Z,-40.0
2024-02-29T00:16:35.000Z,-40.0
2024-02-29T00:17:39.000Z,-40.0
2024-02-29T00:18:43.000Z,-40.0
2024-02-29T00:19:47.000Z,-40.0
2024-02-29T00:20:51.000Z,-40.0
2024-02-29T00:21:55.000Z,-40.0
2024-02-29T00:22:59.000Z,-40.0
2024-02-29T00:24:03.000Z,-40.0
2024-02-29T00:25:07.000Z,-40.0
2024-02-29T00:26:11.000Z,-40.0
2024-02-29T00:27:15.000Z,-40.0
2024-02-29T00:28:19.000Z,-40.0
2024-02-29T00:29:23.000Z,-40.0
2024-02-29T00:30:27.000Z,-40.0
2024-02-29T00:31:31.000Z,-40.0
2024-02-29T00:32:35.000Z,-40.0
2024-02-29T00:33:39.000Z,-40.0
2024-02-29T00:34:43.000Z,-40.0
2024-02-29T00:35:47.000Z,-40.0
2024-02-29T00:36:51.000Z,-40.0
2024-02-29T00:37:55.000Z,-40.0
2024-02-29T00:38:59.000Z,-40.0
2024-02-29T00:40:03.000Z,-40.0
2024-02-29T00:41:07.000Z,-40.0
2024-02-29T00:42:11.000Z,-40.0
2024-02-29T00:43:15.000Z,-40.0
2024-02-29T00:44:19.000Z,-40.0
2024-02-29T00:45:23.000Z,-40.0
2024-02-29T00:46:27.000Z,-40.0
2024-02-29T00:47:31.000Z,-40.0
2024-02-29T00:48:35.000Z,-40.0
2024-02-29T00:49:39.000Z,-40.0
2024-02-29T00:50:43.000Z,-40.0
2024-02-29T00:51:47.000Z,-40.0
2024-02-29T00:52:51.000Z,-40.0
2024-02-29T00:53:55.000Z,-40.0
2024-02-29T00:54:59.000Z,-40.0
2024-02-29T00:56:03.000Z,-40.0
2024-02-29T00:57:06.000Z,-40.0
2024-02-29T00:58:11.000Z,-40.0
2024-02-29T00:59:14.000Z,-40.0
2024-02-29T01:00:18.000Z,-40.0
2024-02-29T01:01:22.000Z,-40.0
2024-02-29T01:02:26.000Z,-40.0
2024-02-29T01:03:31.000Z,-40.0
2024-02-29T01:04:34.000Z,-40.0
2024-02-29T01:05:38.000Z,-40.0
2024-02-29T01:06:42.000Z,-40.0
2024-02-29T01:07:46.000Z,-40.0
2024-02-29T01:08:50.000Z,-40.0
2024-02-29T01:09:54.000Z,-40.0
2024-02-29T01:10:58.000Z,-40.0
2024-02-29T01:12:02.000Z,-40.0
2024-02-29T01:13:06.000Z,-40.0
2024-02-29T01:14:10.000Z,-40.0
2024-02-29T01:15:14.000Z,-40.0
2024-02-29T01:16:18.000Z,-40.0
2024-02-29T01:17:22.000Z,-40.0
2024-02-29T01:18:26.000Z,-40.0
2024-02-29T01:19:30.000Z,-40.0
2024-02-29T01:20:34.000Z,-40.0
2024-02-29T01:21:38.000Z,-40.0
2024-02-29T01:22:42.000Z,-40.0
2024-02-29T01:23:46.000Z,-40.0
2024-02-29T01:24:50.000Z,-40.0
2024-02-29T01:25:54.000Z,-40.0
2024-02-29T01:26:58.000Z,-40.0
2024-02-29T01:28:02.000Z,-40.0
2024-02-29T01:29:06.000Z,-40.0
2024-02-29T01:30:10.000Z,-40.0
2024-02-29T01:31:14.000Z,-40.0
2024-02-29T01:32:18.000Z,-40.0
2024-02-29T01:33:22.000Z,-40.0
2024-02-29T01:34:26.000Z,-40.0
2024-02-29T01:35:30.000Z,-40.0
2024-02-29T01:36:34.000Z,-40.0
2024-02-29T01:37:38.000Z,-40.0
2024-02-29T01:38:42.000Z,-40.0
2024-02-29T01:39:46.000Z,-40.0
2024-02-29T01:40:50.000Z,-40.0
2024-02-29T01:41:54.000Z,-40.0
2024-02-29T01:42:58.000Z,-40.0
2024-02-29T01:44:02.000Z,-40.0
2024-02-29T01:45:06.000Z,-40.0
2024-02-29T01:46:10.000Z,-40.0
2024-02-29T01:47:14.000Z,-40.0
2024-02-29T01:48:18.000Z,-40.0
2024-02-29T01:49:22.000Z,-40.0
2024-02-29T01:50:26.000Z,-40.0
2024-02-29T01:51:29.000Z,-40.0
2024-02-29T01:52:34.000Z,-40.0
2024-02-29T01:53:37.000Z,-40.0
2024-02-29T01:54:41.000Z,-40.0
2024-02-29T01:55:45.000Z,-40.0
2024-02-29T01:56:49.000Z,-40.0
2024-02-29T01:57:53.000Z,-40.0
2024-02-29T01:58:57.000Z,-40.0
2024-02-29T02:00:01.000Z,-40.0
2024-02-29T02:01:05.000Z,-40.0
2024-02-29T02:02:09.000Z,-40.0
2024-02-29T02:03:13.000Z,-40.0
2024-02-29T02:04:17.000Z,-40.0
2024-02-29T02:05:21.000Z,-40.0
2024-02-29T02:06:25.000Z,-40.0
2024-02-29T02:07:29.000Z,-40.0
2024-02-29T02:08:33.000Z,-40.0
2024-02-29T02:09:37.000Z,-40.0
2024-02-29T02:10:41.000Z,-40.0
2024-02-29T02:11:45.000Z,-40.0
2024-02-29T02:12:49.000Z,-40.0
2024-02-29T02:13:53.000Z,-40.0
2024-02-29T02:14:57.000Z,-40.0
2024-02-29T02:16:01.000Z,-40.0
2024-02-29T02:17:05.000Z,-40.0
2024-02-29T02:18:09.000Z,-40.0
2024-02-29T02:19:13.000Z,-40.0
2024-02-29T02:20:17.000Z,-40.0
2024-02-29T02:21:21.000Z,-40.0
2024-02-29T02:22:25.000Z,-40.0
2024-02-29T02:23:29.000Z,-40.0
2024-02-29T02:24:33.000Z,-40.0
2024-02-29T02:25:37.000Z,-40.0
2024-02-29T02:26:41.000Z,-40.0
2024-02-29T02:27:45.000Z,-40.0
2024-02-29T02:28:48.000Z,-40.0
2024-02-29T02:29:52.000Z,-40.0
2024-02-29T02:30:56.000Z,-40.0
2024-02-29T02:32:00.000Z,-40.0
2024-02-29T02:33:04.000Z,-40.0
2024-02-29T02:34:08.000Z,-40.0
2024-02-29T02:35:12.000Z,-40.0
2024-02-29T02:36:16.000Z,-40.0
2024-02-29T02:37:20.000Z,-40.0
2024-02-29T02:38:24.000Z,-40.0
2024-02-29T02:39:28.000Z,-40.0
2024-02-29T02:40:32.000Z,-40.0
2024-02-29T02:41:36.000Z,-40.0
2024-02-29T02:42:40.000Z,-40.0
2024-02-29T02:43:44.000Z,-40.0
2024-02-29T02:44:48.000Z,-40.0
2024-02-29T02:45:52.000Z,-40.0
2024-02-29T02:46:56.000Z,-40.0
2024-02-29T02:48:00.000Z,-40.0
2024-02-29T02:49:04.000Z,-40.0
2024-02-29T02:50:08.000Z,-40.0
2024-02-29T02:51:12.000Z,-40.0
2024-02-29T02:52:16.000Z,-40.0
2024-02-29T02:53:20.000Z,-40.0
2024-02-29T02:54:24.000Z,-40.0
2024-02-29T02:55:28.000Z,-40.0
2024-02-29T02:56:32.000Z,-40.0
2024-02-29T02:57:36.000Z,-40.0
2024-02-29T02:58:40.000Z,-40.0
2024-02-29T02:59:44.000Z,-40.0
2024-02-29T03:00:48.000Z,-40.0
2024-02-29T03:01:52.000Z,-40.0
2024-02-29T03:02:56.000Z,-40.0
2024-02-29T03:04:00.000Z,-40.0
2024-02-29T03:05:04.000Z,-40.0
2024-02-29T03:06:08.000Z,-40.0
2024-02-29T03:07:12.000Z,-40.0
2024-02-29T03:08:16.000Z,-40.0
2024-02-29T03:09:20.000Z,-40.0
2024-02-29T03:10:24.000Z,-40.0
2024-02-29T03:11:28.000Z,-40.0
2024-02-29T03:12:31.000Z,-40.0
2024-02-29T03:13:35.000Z,-40.0
2024-02-29T03:14:39.000Z,-40.0
2024-02-29T03:15:43.000Z,-40.0
2024-02-29T03:16:48.000Z,-40.0
2024-02-29T03:17:51.000Z,-40.0
2024-02-29T03:18:55.000Z,-40.0
2024-02-29T03:19:59.000Z,-40.0
2024-02-29T03:21:03.000Z,-40.0
2024-02-29T03:22:07.000Z,-40.0
2024-02-29T03:23:11.000Z,-40.0
2024-02-29T03:24:15.000Z,-40.0
2024-02-29T03:25:19.000Z,-40.0
2024-02-29T03:26:23.000Z,-40.0
2024-02-29T03:27:27.000Z,-40.0
2024-02-29T03:28:31.000Z,-40.0
2024-02-29T03:29:35.000Z,-40.0
2024-02-29T03:30:39.000Z,-40.0
2024-02-29T03:31:43.000Z,-40.0
2024-02-29T03:32:47.000Z,-40.0
2024-02-29T03:33:51.000Z,-40.0
2024-02-29T03:34:55.000Z,-40.0
2024-02-29T03:35:59.000Z,-40.0
2024-02-29T03:37:03.000Z,-40.0
2024-02-29T03:38:07.000Z,-40.0
2024-02-29T03:39:11.000Z,-40.0
2024-02-29T03:40:15.000Z,-40.0
2024-02-29T03:41:19.000Z,-40.0
2024-02-29T03:42:23.000Z,-40.0
2024-02-29T03:43:27.000Z,-40.0
2024-02-29T03:44:31.000Z,-40.0
2024-02-29T03:45:35.000Z,-40.0
2024-02-29T03:46:39.000Z,-40.0
2024-02-29T03:47:43.000Z,-40.0
2024-02-29T03:48:47.000Z,-40.0
2024-02-29T03:49:50.000Z,-40.0
2024-02-29T03:50:54.000Z,-40.0
2024-02-29T03:51:58.000Z,-40.0
2024-02-29T03:53:02.000Z,-40.0
2024-02-29T03:54:06.000Z,-40.0
2024-02-29T03:55:10.000Z,-40.0
2024-02-29T03:56:14.000Z,-40.0
2024-02-29T03:57:18.000Z,-40.0
2024-02-29T03:58:22.000Z,-40.0
2024-02-29T03:59:26.000Z,-40.0
2024-02-29T04:00:30.000Z,-40.0
2024-02-29T04:01:34.000Z,-40.0
2024-02-29T04:02:38.000Z,-40.0
2024-02-29T04:03:42.000Z,-40.0
2024-02-29T04:04:46.000Z,-40.0
2024-02-29T04:05:50.000Z,-40.0
2024-02-29T04:06:54.000Z,-40.0
2024-02-29T04:07:58.000Z,-40.0
2024-02-29T04:09:02.000Z,-40.0
2024-02-29T04:10:06.000Z,-40.0
2024-02-29T04:11:10.000Z,-40.0
2024-02-29T04:12:14.000Z,-40.0
2024-02-29T04:13:18.000Z,-40.0
2024-02-29T04:14:22.000Z,-40.0
2024-02-29T04:15:26.000Z,-40.0
2024-02-29T04:16:30.000Z,-40.0
2024-02-29T04:17:34.000Z,-40.0
2024-02-29T04:18:38.000Z,-40.0
2024-02-29T04:19:42.000Z,-40.0
2024-02-29T04:20:46.000Z,-40.0
2024-02-29T04:21:50.000Z,-40.0
2024-02-29T04:22:54.000Z,-40.0
2024-02-29T04:23:58.000Z,-40.0
2024-02-29T04:25:01.000Z,-40.0
2024-02-29T04:26:05.000Z,-40.0
2024-02-29T04:27:09.000Z,-40.0
2024-02-29T04:28:13.000Z,-40.0
2024-02-29T04:29:17.000Z,-40.0
2024-02-29T04:30:21.000Z,-40.0
2024-02-29T04:31:25.000Z,-40.0
2024-02-29T04:32:29.000Z,-40.0
2024-02-29T04:33:33.000Z,-40.0
2024-02-29T04:34:37.000Z,-40.0
2024-02-29T04:35:41.000Z,-40.0
2024-02-29T04:36:45.000Z,-40.0
2024-02-29T04:37:49.000Z,-40.0
2024-02-29T04:38:53.000Z,-40.0
2024-02-29T04:39:57.000Z,-40.0
2024-02-29T04:41:01.000Z,-40.0
2024-02-29T04:42:05.000Z,-40.0
2024-02-29T04:43:09.000Z,-40.0
2024-02-29T04:44:13.000Z,-40.0
2024-02-29T04:45:17.000Z,-40.0
2024-02-29T04:46:21.000Z,-40.0
2024-02-29T04:47:25.000Z,-40.0
2024-02-29T04:48:29.000Z,-40.0
2024-02-29T04:49:33.000Z,-40.0
2024-02-29T04:50:37.000Z,-40.0
2024-02-29T04:51:40.000Z,-40.0
2024-02-29T04:52:44.000Z,-40.0
2024-02-29T04:53:48.000Z,-40.0
2024-02-29T04:54:52.000Z,-40.0
2024-02-29T04:55:56.000Z,-40.0
2024-02-29T04:57:00.000Z,-40.0
2024-02-29T04:58:04.000Z,-40.0
2024-02-29T04:59:08.000Z,-40.0
2024-02-29T05:00:12.000Z,-40.0
2024-02-29T05:01:16.000Z,-40.0
2024-02-29T05:02:20.000Z,-40.0
2024-02-29T05:03:24.000Z,-40.0
2024-02-29T05:04:28.000Z,-40.0
2024-02-29T05:05:32.000Z,-40.0
2024-02-29T05:06:36.000Z,-40.0
2024-02-29T05:07:39.000Z,-40.0
2024-02-29T05:08:44.000Z,-40.0
2024-02-29T05:09:48.000Z,-40.0
2024-02-29T05:10:52.000Z,-40.0
2024-02-29T05:11:56.000Z,-40.0
2024-02-29T05:12:59.000Z,-40.0
2024-02-29T05:14:03.000Z,-40.0
2024-02-29T05:15:07.000Z,-40.0
2024-02-29T05:16:11.000Z,-40.0
2024-02-29T05:17:15.000Z,-40.0
2024-02-29T05:18:19.000Z,-40.0
2024-02-29T05:19:23.000Z,-40.0
2024-02-29T05:20:27.000Z,-40.0
2024-02-29T05:21:31.000Z,-40.0
2024-02-29T05:22:35.000Z,-40.0
2024-02-29T05:23:39.000Z,-40.0
2024-02-29T05:24:43.000Z,-40.0
2024-02-29T05:25:47.000Z,-40.0
2024-02-29T05:26:51.000Z,-40.0
2024-02-29T05:27:55.000Z,-40.0
2024-02-29T05:28:59.000Z,-40.0
2024-02-29T05:30:03.000Z,-40.0
2024-02-29T05:31:07.000Z,-40.0
2024-02-29T05:32:11.000Z,-40.0
2024-02-29T05:33:15.000Z,-40.0
2024-02-29T05:34:19.000Z,1.03
2024-02-29T05:35:23.000Z,1.03
2024-02-29T05:36:26.000Z,1.03
2024-02-29T05:37:30.000Z,1.02
2024-02-29T05:38:34.000Z,1.02
2024-02-29T05:39:38.000Z,1.02
2024-02-29T05:40:41.000Z,1.0
2024-02-29T05:41:45.000Z,1.02
2024-02-29T05:42:49.000Z,1.02
2024-02-29T05:43:53.000Z,1.03
2024-02-29T05:44:57.000Z,1.05
2024-02-29T05:46:00.000Z,1.06
2024-02-29T05:47:04.000Z,1.1
2024-02-29T05:48:08.000Z,1.03
2024-02-29T05:49:12.000Z,1.13
2024-02-29T05:50:16.000Z,1.12
2024-02-29T05:51:19.000Z,1.12
2024-02-29T05:52:23.000Z,1.12
2024-02-29T05:53:27.000Z,1.1
2024-02-29T05:54:31.000Z,1.12
2024-02-29T05:55:34.000Z,1.12
2024-02-29T05:56:38.000Z,1.13
2024-02-29T05:57:42.000Z,1.16
2024-02-29T05:58:46.000Z,1.2
2024-02-29T05:59:50.000Z,1.21
2024-02-29T06:00:53.000Z,1.23
2024-02-29T06:01:57.000Z,1.23
2024-02-29T06:03:01.000Z,1.26
2024-02-29T06:04:05.000Z,1.24
2024-02-29T06:05:08.000Z,1.24
2024-02-29T06:06:12.000Z,1.24
2024-02-29T06:07:16.000Z,1.26
2024-02-29T06:08:20.000Z,1.36
2024-02-29T06:09:24.000Z,1.3
2024-02-29T06:10:27.000Z,1.34
2024-02-29T06:11:31.000Z,1.34
2024-02-29T06:12:35.000Z,1.36
2024-02-29T06:13:39.000Z,1.36
2024-02-29T06:14:42.000Z,1.36
2024-02-29T06:15:46.000Z,1.38
2024-02-29T06:16:50.000Z,1.39
2024-02-29T06:17:54.000Z,1.41
2024-02-29T06:18:57.000Z,1.42
2024-02-29T06:20:01.000Z,1.44
2024-02-29T06:21:05.000Z,1.44
2024-02-29T06:22:09.000Z,1.44
2024-02-29T06:23:12.000Z,1.46
2024-02-29T06:24:16.000Z,1.46
2024-02-29T06:25:20.000Z,1.48
2024-02-29T06:26:24.000Z,1.52
2024-02-29T06:27:27.000Z,1.53
2024-02-29T06:28:31.000Z,1.57
2024-02-29T06:29:35.000Z,1.56
2024-02-29T06:30:39.000Z,1.59
2024-02-29T06:31:43.000Z,1.6
2024-02-29T06:32:46.000Z,1.6
2024-02-29T06:33:50.000Z,1.64
2024-02-29T06:34:54.000Z,1.66
2024-02-29T06:35:58.000Z,1.67
2024-02-29T06:37:02.000Z,1.71
2024-02-29T06:38:05.000Z,1.71
2024-02-29T06:39:09.000Z,1.73
2024-02-29T06:40:13.000Z,1.75
2024-02-29T06:41:17.000Z,1.78
2024-02-29T06:42:20.000Z,1.8
2024-02-29T06:43:24.000Z,1.81
2024-02-29T06:44:28.000Z,1.84
2024-02-29T06:45:32.000Z,1.87
2024-02-29T06:46:35.000Z,1.91
2024-02-29T06:47:39.000Z,1.97
2024-02-29T06:48:43.000Z,1.99
2024-02-29T06:49:46.000Z,2.03
2024-02-29T06:50:50.000Z,2.04
2024-02-29T06:51:54.000Z,2.07
2024-02-29T06:52:58.000Z,2.11
2024-02-29T06:54:01.000Z,2.15
2024-02-29T06:55:05.000Z,2.22
2024-02-29T06:56:09.000Z,2.22
2024-02-29T06:57:13.000Z,2.25
2024-02-29T06:58:17.000Z,2.29
2024-02-29T06:59:21.000Z,2.3
2024-02-29T07:00:24.000Z,2.33
2024-02-29T07:01:28.000Z,2.36
2024-02-29T07:02:32.000Z,2.39
2024-02-29T07:03:35.000Z,2.4
2024-02-29T07:04:39.000Z,2.42
2024-02-29T07:05:43.000Z,2.43
2024-02-29T07:06:47.000Z,2.45
2024-02-29T07:07:51.000Z,2.5
2024-02-29T07:08:54.000Z,2.51
2024-02-29T07:09:58.000Z,2.54
2024-02-29T07:11:02.000Z,2.57
2024-02-29T07:12:06.000Z,2.6
2024-02-29T07:13:09.000Z,2.6
2024-02-29T07:14:13.000Z,2.61
2024-02-29T07:15:17.000Z,2.6
2024-02-29T07:16:21.000Z,2.69
2024-02-29T07:17:25.000Z,2.71
2024-02-29T07:18:28.000Z,2.75
2024-02-29T07:19:32.000Z,2.76
2024-02-29T07:20:36.000Z,2.78
2024-02-29T07:21:40.000Z,2.82
2024-02-29T07:22:43.000Z,2.86
2024-02-29T07:23:47.000Z,2.9
2024-02-29T07:24:51.000Z,2.91
2024-02-29T07:25:55.000Z,2.93
2024-02-29T07:26:58.000Z,2.94
2024-02-29T07:28:02.000Z,2.99
2024-02-29T07:29:06.000Z,2.99
2024-02-29T07:30:10.000Z,3.02
2024-02-29T07:31:14.000Z,3.04
2024-02-29T07:32:17.000Z,3.08
2024-02-29T07:33:21.000Z,3.11
2024-02-29T07:34:25.000Z,3.17
2024-02-29T07:35:29.000Z,3.17
2024-02-29T07:36:32.000Z,3.22
2024-02-29T07:37:36.000Z,3.25
2024-02-29T07:38:40.000Z,3.27
2024-02-29T07:39:44.000Z,3.27
2024-02-29T07:40:47.000Z,3.29
2024-02-29T07:41:51.000Z,3.3
2024-02-29T07:42:55.000Z,3.33
2024-02-29T07:43:59.000Z,3.37
2024-02-29T07:45:03.000Z,3.42
2024-02-29T07:46:07.000Z,3.46
2024-02-29T07:47:10.000Z,3.51
2024-02-29T07:48:14.000Z,3.59
2024-02-29T07:49:18.000Z,3.55
2024-02-29T07:50:22.000Z,3.62
2024-02-29T07:51:25.000Z,3.63
2024-02-29T07:52:29.000Z,3.69
2024-02-29T07:53:33.000Z,3.72
2024-02-29T07:54:37.000Z,3.73
2024-02-29T07:55:40.000Z,3.78
2024-02-29T07:56:44.000Z,3.8
2024-02-29T07:57:48.000Z,3.81
2024-02-29T07:58:52.000Z,3.85
2024-02-29T07:59:55.000Z,3.9
2024-02-29T08:00:59.000Z,3.94
2024-02-29T08:02:03.000Z,3.99
2024-02-29T08:03:07.000Z,4.02
2024-02-29T08:04:11.000Z,4.08
2024-02-29T08:05:14.000Z,4.12
2024-02-29T08:06:18.000Z,4.16
2024-02-29T08:07:22.000Z,4.2
2024-02-29T08:08:26.000Z,4.23
2024-02-29T08:09:29.000Z,4.26
2024-02-29T08:10:33.000Z,4.31
2024-02-29T08:11:37.000Z,4.38
2024-02-29T08:12:40.000Z,4.42
2024-02-29T08:13:44.000Z,4.48
2024-02-29T08:14:48.000Z,4.48
2024-02-29T08:15:52.000Z,4.51
2024-02-29T08:16:56.000Z,4.6
2024-02-29T08:17:59.000Z,4.61
2024-02-29T08:19:03.000Z,4.67
2024-02-29T08:20:07.000Z,4.69
2024-02-29T08:21:11.000Z,4.75
2024-02-29T08:22:14.000Z,4.83
2024-02-29T08:23:18.000Z,4.88
2024-02-29T08:24:22.000Z,4.94
2024-02-29T08:25:26.000Z,4.98
2024-02-29T08:26:29.000Z,5.06
2024-02-29T08:27:33.000Z,5.12
2024-02-29T08:28:37.000Z,5.18
2024-02-29T08:29:41.000Z,5.22
2024-02-29T08:30:45.000Z,5.32
2024-02-29T08:31:48.000Z,5.37
2024-02-29T08:32:52.000Z,5.43
2024-02-29T08:33:56.000Z,5.5
2024-02-29T08:35:00.000Z,5.57
2024-02-29T08:36:03.000Z,5.62
2024-02-29T08:37:07.000Z,5.69
2024-02-29T08:38:11.000Z,5.76
2024-02-29T08:39:15.000Z,5.85
2024-02-29T08:40:19.000Z,5.94
2024-02-29T08:41:22.000Z,5.98
2024-02-29T08:42:26.000Z,6.03
2024-02-29T08:43:30.000Z,6.06
2024-02-29T08:44:34.000Z,6.13
2024-02-29T08:45:37.000Z,6.21
2024-02-29T08:46:41.000Z,6.28
2024-02-29T08:47:45.000Z,6.32
2024-02-29T08:48:49.000Z,6.43
2024-02-29T08:49:52.000Z,6.46
2024-02-29T08:50:56.000Z,6.5
2024-02-29T08:52:00.000Z,6.57
2024-02-29T08:53:04.000Z,6.68
2024-02-29T08:54:08.000Z,6.75
2024-02-29T08:55:11.000Z,6.81
2024-02-29T08:56:15.000Z,6.88
2024-02-29T08:57:19.000Z,6.99
2024-02-29T08:58:23.000Z,7.03
2024-02-29T08:59:26.000Z,7.06
2024-02-29T09:00:30.000Z,7.13
2024-02-29T09:01:34.000Z,7.21
2024-02-29T09:02:38.000Z,7.29
2024-02-29T09:03:42.000Z,7.37
2024-02-29T09:04:45.000Z,7.44
2024-02-29T09:05:49.000Z,7.52
2024-02-29T09:06:53.000Z,7.57
2024-02-29T09:07:57.000Z,7.6
2024-02-29T09:09:00.000Z,7.69
2024-02-29T09:10:04.000Z,7.71
2024-02-29T09:11:08.000Z,7.77
2024-02-29T09:12:12.000Z,7.87
2024-02-29T09:13:16.000Z,7.88
2024-02-29T09:14:19.000Z,7.96
2024-02-29T09:15:23.000Z,7.98
2024-02-29T09:16:27.000Z,7.99
2024-02-29T09:17:31.000Z,7.99
2024-02-29T09:18:35.000Z,8.02
2024-02-29T09:19:38.000Z,8.05
2024-02-29T09:20:42.000Z,8.05
2024-02-29T09:21:46.000Z,8.09
2024-02-29T09:22:50.000Z,8.13
2024-02-29T09:23:53.000Z,8.17
2024-02-29T09:24:57.000Z,8.17
2024-02-29T09:26:01.000Z,8.21
2024-02-29T09:27:05.000Z,8.34
2024-02-29T09:28:08.000Z,8.42
2024-02-29T09:29:12.000Z,8.46
2024-02-29T09:30:16.000Z,8.39
2024-02-29T09:31:20.000Z,8.44
2024-02-29T09:32:24.000Z,8.42
2024-02-29T09:33:28.000Z,8.46
2024-02-29T09:34:31.000Z,8.49
2024-02-29T09:35:35.000Z,8.52
2024-02-29T09:36:39.000Z,8.5
2024-02-29T09:37:43.000Z,8.56
2024-02-29T09:38:46.000Z,8.62
2024-02-29T09:39:50.000Z,8.65
2024-02-29T09:40:54.000Z,8.74
2024-02-29T09:41:58.000Z,8.78
2024-02-29T09:43:01.000Z,8.85
2024-02-29T09:44:05.000Z,8.9
2024-02-29T09:45:09.000Z,8.93
2024-02-29T09:46:13.000Z,9.04
2024-02-29T09:47:16.000Z,9.12
2024-02-29T09:48:20.000Z,9.18
2024-02-29T09:49:24.000Z,9.22
2024-02-29T09:50:28.000Z,9.19
2024-02-29T09:51:32.000Z,9.23
2024-02-29T09:52:36.000Z,9.26
2024-02-29T09:53:39.000Z,9.24
2024-02-29T09:54:43.000Z,9.27
2024-02-29T09:55:47.000Z,9.33
2024-02-29T09:56:50.000Z,9.36
2024-02-29T09:57:54.000Z,9.4
2024-02-29T09:58:58.000Z,9.47
2024-02-29T10:00:02.000Z,9.5
2024-02-29T10:01:06.000Z,9.57
2024-02-29T10:02:09.000Z,9.6
2024-02-29T10:03:13.000Z,9.66
2024-02-29T10:04:17.000Z,9.75
2024-02-29T10:05:21.000Z,9.69
2024-02-29T10:06:25.000Z,9.65
2024-02-29T10:07:28.000Z,9.62
2024-02-29T10:08:32.000Z,9.62
2024-02-29T10:09:36.000Z,9.55
2024-02-29T10:10:40.000Z,9.63
2024-02-29T10:11:44.000Z,9.65
2024-02-29T10:12:47.000Z,9.6
2024-02-29T10:13:51.000Z,9.65
2024-02-29T10:14:55.000Z,9.63
2024-02-29T10:15:59.000Z,9.77
2024-02-29T10:17:02.000Z,9.88
2024-02-29T10:18:06.000Z,9.93
2024-02-29T10:19:10.000Z,9.93
2024-02-29T10:20:14.000Z,9.93
2024-02-29T10:21:17.000Z,10.01
2024-02-29T10:22:21.000Z,10.12
2024-02-29T10:23:25.000Z,10.2
2024-02-29T10:24:29.000Z,10.34
2024-02-29T10:25:33.000Z,10.45
2024-02-29T10:26:37.000Z,10.52
2024-02-29T10:27:40.000Z,10.58
2024-02-29T10:28:44.000Z,10.64
2024-02-29T10:29:48.000Z,10.68
2024-02-29T10:30:52.000Z,10.61
2024-02-29T10:31:55.000Z,10.6
2024-02-29T10:32:59.000Z,10.57
2024-02-29T10:34:03.000Z,10.65
2024-02-29T10:35:07.000Z,10.67
2024-02-29T10:36:10.000Z,10.73
2024-02-29T10:37:14.000Z,10.85
2024-02-29T10:38:18.000Z,10.76
2024-02-29T10:39:22.000Z,10.76
2024-02-29T10:40:26.000Z,10.79
2024-02-29T10:41:29.000Z,10.8
2024-02-29T10:42:33.000Z,10.87
2024-02-29T10:43:37.000Z,10.87
2024-02-29T10:44:41.000Z,10.9
2024-02-29T10:45:44.000Z,10.79
2024-02-29T10:46:48.000Z,10.76
2024-02-29T10:47:52.000Z,10.68
2024-02-29T10:48:56.000Z,10.7
2024-02-29T10:49:59.000Z,10.76
2024-02-29T10:51:03.000Z,10.76
2024-02-29T10:52:07.000Z,10.61
2024-02-29T10:53:11.000Z,10.67
2024-02-29T10:54:15.000Z,10.83
2024-02-29T10:55:18.000Z,10.91
2024-02-29T10:56:22.000Z,10.97
2024-02-29T10:57:26.000Z,11.0
2024-02-29T10:58:30.000Z,11.01
2024-02-29T10:59:34.000Z,11.08
2024-02-29T11:00:37.000Z,11.16
2024-02-29T11:01:41.000Z,11.12
2024-02-29T11:02:45.000Z,11.08
2024-02-29T11:03:49.000Z,11.2
2024-02-29T11:04:52.000Z,11.31
2024-02-29T11:05:56.000Z,11.3
2024-02-29T11:07:00.000Z,11.23
2024-02-29T11:08:03.000Z,11.16
2024-02-29T11:09:07.000Z,11.25
2024-02-29T11:10:11.000Z,11.27
2024-02-29T11:11:15.000Z,11.25
2024-02-29T11:12:19.000Z,11.37
2024-02-29T11:13:22.000Z,11.37
2024-02-29T11:14:26.000Z,11.45
2024-02-29T11:15:30.000Z,11.49
2024-02-29T11:16:34.000Z,11.52
2024-02-29T11:17:38.000Z,11.58
2024-02-29T11:18:41.000Z,11.58
2024-02-29T11:19:45.000Z,11.46
2024-02-29T11:20:49.000Z,11.49
2024-02-29T11:21:52.000Z,11.56
2024-02-29T11:22:56.000Z,11.54
2024-02-29T11:24:00.000Z,11.54
2024-02-29T11:25:04.000Z,11.56
2024-02-29T11:26:07.000Z,11.61
2024-02-29T11:27:11.000Z,11.56
2024-02-29T11:28:15.000Z,11.64
2024-02-29T11:29:19.000Z,11.56
2024-02-29T11:30:22.000Z,11.54
2024-02-29T11:31:26.000Z,11.62
2024-02-29T11:32:30.000Z,11.76
2024-02-29T11:33:34.000Z,11.74
2024-02-29T11:34:38.000Z,11.79
2024-02-29T11:35:42.000Z,11.79
2024-02-29T11:36:45.000Z,11.84
2024-02-29T11:37:49.000Z,11.88
2024-02-29T11:38:53.000Z,11.7
2024-02-29T11:39:56.000Z,11.59
2024-02-29T11:41:00.000Z,11.58
2024-02-29T11:42:04.000Z,11.69
2024-02-29T11:43:08.000Z,11.8
2024-02-29T11:44:11.000Z,11.79
2024-02-29T11:45:15.000Z,11.73
2024-02-29T11:46:19.000Z,11.7
2024-02-29T11:47:23.000Z,11.74
2024-02-29T11:48:26.000Z,11.66
2024-02-29T11:49:30.000Z,11.69
2024-02-29T11:50:34.000Z,11.71
2024-02-29T11:51:38.000Z,11.8
2024-02-29T11:52:42.000Z,11.91
2024-02-29T11:53:46.000Z,11.93
2024-02-29T11:54:49.000Z,12.0
2024-02-29T11:55:53.000Z,12.03
2024-02-29T11:56:57.000Z,12.13
2024-02-29T11:58:01.000Z,12.17
2024-02-29T11:59:04.000Z,12.29
2024-02-29T12:00:08.000Z,12.25
2024-02-29T12:01:12.000Z,12.25
2024-02-29T12:02:15.000Z,12.29
2024-02-29T12:03:19.000Z,12.38
2024-02-29T12:04:23.000Z,12.32
2024-02-29T12:05:27.000Z,12.35
2024-02-29T12:06:30.000Z,12.36
2024-02-29T12:07:34.000Z,12.3
2024-02-29T12:08:38.000Z,12.17
2024-02-29T12:09:42.000Z,12.23
2024-02-29T12:10:46.000Z,12.25
2024-02-29T12:11:50.000Z,12.21
2024-02-29T12:12:53.000Z,12.28
2024-02-29T12:13:57.000Z,12.35
2024-02-29T12:15:01.000Z,12.32
2024-02-29T12:16:05.000Z,12.36
2024-02-29T12:17:09.000Z,12.33
2024-02-29T12:18:12.000Z,12.38
2024-02-29T12:19:16.000Z,12.22
2024-02-29T12:20:20.000Z,11.62
2024-02-29T12:21:24.000Z,11.43
2024-02-29T12:22:27.000Z,11.43
2024-02-29T12:23:31.000Z,11.49
2024-02-29T12:24:35.000Z,11.61
2024-02-29T12:25:39.000Z,11.73
2024-02-29T12:26:42.000Z,11.84
2024-02-29T12:27:46.000Z,11.99
2024-02-29T12:28:50.000Z,12.11
2024-02-29T12:29:54.000Z,12.18
2024-02-29T12:30:57.000Z,12.28
2024-02-29T12:32:01.000Z,12.33
2024-02-29T12:33:05.000Z,12.41
2024-02-29T12:34:09.000Z,12.47
2024-02-29T12:35:13.000Z,12.5
2024-02-29T12:36:16.000Z,12.46
2024-02-29T12:37:20.000Z,12.41
2024-02-29T12:38:24.000Z,12.41
2024-02-29T12:39:28.000Z,12.43
2024-02-29T12:40:32.000Z,12.51
2024-02-29T12:41:35.000Z,12.61
2024-02-29T12:42:39.000Z,12.59
2024-02-29T12:43:43.000Z,12.63
2024-02-29T12:44:47.000Z,12.65
2024-02-29T12:45:51.000Z,12.59
2024-02-29T12:46:54.000Z,12.58
2024-02-29T12:47:58.000Z,12.5
2024-02-29T12:49:02.000Z,12.53
2024-02-29T12:50:06.000Z,12.48
2024-02-29T12:51:09.000Z,12.3
2024-02-29T12:52:13.000Z,12.28
2024-02-29T12:53:17.000Z,12.3
2024-02-29T12:54:21.000Z,12.33
2024-02-29T12:55:25.000Z,12.41
2024-02-29T12:56:28.000Z,12.4
2024-02-29T12:57:32.000Z,12.43
2024-02-29T12:58:36.000Z,12.5
2024-02-29T12:59:40.000Z,12.53
2024-02-29T13:00:43.000Z,12.58
2024-02-29T13:01:47.000Z,12.55
2024-02-29T13:02:51.000Z,12.63
2024-02-29T13:03:55.000Z,12.58
2024-02-29T13:04:58.000Z,12.44
2024-02-29T13:06:02.000Z,12.4
2024-02-29T13:07:06.000Z,12.43
2024-02-29T13:08:10.000Z,12.43
2024-02-29T13:09:14.000Z,12.41
2024-02-29T13:10:17.000Z,12.5
2024-02-29T13:11:21.000Z,12.58
2024-02-29T13:12:25.000Z,12.65
2024-02-29T13:13:29.000Z,12.72
2024-02-29T13:14:33.000Z,12.68
2024-02-29T13:15:36.000Z,12.63
2024-02-29T13:16:40.000Z,12.62
2024-02-29T13:17:44.000Z,12.62
2024-02-29T13:18:48.000Z,12.69
2024-02-29T13:19:51.000Z,12.69
2024-02-29T13:20:55.000Z,12.71
2024-02-29T13:21:59.000Z,12.77
2024-02-29T13:23:03.000Z,12.73
2024-02-29T13:24:06.000Z,12.76
2024-02-29T13:25:10.000Z,12.8
2024-02-29T13:26:14.000Z,12.84
2024-02-29T13:27:18.000Z,12.9
2024-02-29T13:28:21.000Z,12.93
2024-02-29T13:29:25.000Z,12.95
2024-02-29T13:30:29.000Z,12.98
2024-02-29T13:31:33.000Z,12.99
2024-02-29T13:32:37.000Z,13.05
2024-02-29T13:33:40.000Z,13.06
2024-02-29T13:34:44.000Z,12.99
2024-02-29T13:35:48.000Z,12.98
2024-02-29T13:36:52.000Z,12.99
2024-02-29T13:37:55.000Z,13.02
2024-02-29T13:38:59.000Z,13.05
2024-02-29T13:40:03.000Z,13.01
2024-02-29T13:41:07.000Z,13.05
2024-02-29T13:42:10.000Z,13.08
2024-02-29T13:43:14.000Z,13.09
2024-02-29T13:44:18.000Z,13.05
2024-02-29T13:45:22.000Z,13.06
2024-02-29T13:46:25.000Z,13.02
2024-02-29T13:47:29.000Z,12.96
2024-02-29T13:48:33.000Z,12.87
2024-02-29T13:49:37.000Z,12.88
2024-02-29T13:50:41.000Z,12.93
2024-02-29T13:51:45.000Z,12.99
2024-02-29T13:52:48.000Z,13.05
2024-02-29T13:53:52.000Z,13.05